sensor_id;sensor_type;location;lat;lon;timestamp;temperature;humidity
64032;DHT22;50278;47.796;11.968;2023-03-15T00:01:14;2.05;118.99
64032;DHT22;50278;47.796;11.968;2023-03-15T00:03:41;2.03;118.99
64032;DHT22;50278;47.796;11.968;2023-03-15T00:06:07;2.05;118.99
64032;DHT22;50278;47.796;11.968;2023-03-15T00:08:32;2.05;118.99
64032;DHT22;50278;47.796;11.968;2023-03-15T00:10:59;2.03;118.99
64032;DHT22;50278;47.796;11.968;2023-03-15T00:13:25;1.98;118.99
64032;DHT22;50278;47.796;11.968;2023-03-15T00:15:52;1.96;118.99
64032;DHT22;50278;47.796;11.968;2023-03-15T00:18:20;2.02;118.99
64032;DHT22;50278;47.796;11.968;2023-03-15T00:20:46;2.12;118.99
64032;DHT22;50278;47.796;11.968;2023-03-15T00:23:13;2.05;118.99
64032;DHT22;50278;47.796;11.968;2023-03-15T00:25:39;2.09;118.99
64032;DHT22;50278;47.796;11.968;2023-03-15T00:28:05;1.98;118.99
64032;DHT22;50278;47.796;11.968;2023-03-15T00:30:31;2.12;118.99
64032;DHT22;50278;47.796;11.968;2023-03-15T00:32:57;2.19;118.99
64032;DHT22;50278;47.796;11.968;2023-03-15T00:35:23;2.35;118.99
64032;DHT22;50278;47.796;11.968;2023-03-15T00:37:53;2.40;118.99
64032;DHT22;50278;47.796;11.968;2023-03-15T00:40:21;2.65;118.99
64032;DHT22;50278;47.796;11.968;2023-03-15T00:42:46;3.29;118.99
64032;DHT22;50278;47.796;11.968;2023-03-15T00:45:20;3.23;118.99
64032;DHT22;50278;47.796;11.968;2023-03-15T00:47:52;3.45;118.99
64032;DHT22;50278;47.796;11.968;2023-03-15T00:50:20;3.73;118.99
64032;DHT22;50278;47.796;11.968;2023-03-15T00:52:46;3.72;118.99
64032;DHT22;50278;47.796;11.968;2023-03-15T00:55:14;3.70;118.99
64032;DHT22;50278;47.796;11.968;2023-03-15T00:57:42;3.65;118.99
64032;DHT22;50278;47.796;11.968;2023-03-15T01:00:12;3.78;118.99
64032;DHT22;50278;47.796;11.968;2023-03-15T01:02:38;3.72;118.99
64032;DHT22;50278;47.796;11.968;2023-03-15T01:05:06;3.74;118.99
64032;DHT22;50278;47.796;11.968;2023-03-15T01:07:33;3.68;118.99
64032;DHT22;50278;47.796;11.968;2023-03-15T01:10:03;3.58;118.99
64032;DHT22;50278;47.796;11.968;2023-03-15T01:12:31;3.56;118.99
64032;DHT22;50278;47.796;11.968;2023-03-15T01:14:57;3.47;118.99
64032;DHT22;50278;47.796;11.968;2023-03-15T01:17:23;3.43;118.99
64032;DHT22;50278;47.796;11.968;2023-03-15T01:19:49;3.42;118.99
64032;DHT22;50278;47.796;11.968;2023-03-15T01:22:18;3.38;118.99
64032;DHT22;50278;47.796;11.968;2023-03-15T01:24:44;3.34;118.99
64032;DHT22;50278;47.796;11.968;2023-03-15T01:27:10;3.33;118.99
64032;DHT22;50278;47.796;11.968;2023-03-15T01:29:36;3.33;118.99
64032;DHT22;50278;47.796;11.968;2023-03-15T01:32:02;3.32;118.99
64032;DHT22;50278;47.796;11.968;2023-03-15T01:34:27;3.33;118.99
64032;DHT22;50278;47.796;11.968;2023-03-15T01:36:53;3.35;118.99
64032;DHT22;50278;47.796;11.968;2023-03-15T01:39:23;3.39;118.99
64032;DHT22;50278;47.796;11.968;2023-03-15T01:41:48;3.40;118.99
64032;DHT22;50278;47.796;11.968;2023-03-15T01:44:17;3.39;118.99
64032;DHT22;50278;47.796;11.968;2023-03-15T01:46:44;3.34;118.99
64032;DHT22;50278;47.796;11.968;2023-03-15T01:49:22;3.36;118.99
64032;DHT22;50278;47.796;11.968;2023-03-15T01:54:44;3.46;118.99
64032;DHT22;50278;47.796;11.968;2023-03-15T01:57:17;3.36;118.99
64032;DHT22;50278;47.796;11.968;2023-03-15T01:59:57;2.69;118.99
64032;DHT22;50278;47.796;11.968;2023-03-15T02:02:24;2.37;118.99
64032;DHT22;50278;47.796;11.968;2023-03-15T02:05:00;2.03;118.99
64032;DHT22;50278;47.796;11.968;2023-03-15T02:07:29;1.99;118.99
64032;DHT22;50278;47.796;11.968;2023-03-15T02:10:11;1.98;118.99
64032;DHT22;50278;47.796;11.968;2023-03-15T02:12:44;2.01;118.99
64032;DHT22;50278;47.796;11.968;2023-03-15T02:15:10;2.06;118.99
64032;DHT22;50278;47.796;11.968;2023-03-15T02:17:40;2.10;118.99
64032;DHT22;50278;47.796;11.968;2023-03-15T02:23:03;2.16;118.99
64032;DHT22;50278;47.796;11.968;2023-03-15T02:25:42;2.14;118.99
64032;DHT22;50278;47.796;11.968;2023-03-15T02:28:12;2.20;118.99
64032;DHT22;50278;47.796;11.968;2023-03-15T02:30:41;2.22;118.99
64032;DHT22;50278;47.796;11.968;2023-03-15T02:33:38;2.20;118.99
64032;DHT22;50278;47.796;11.968;2023-03-15T02:36:20;2.20;118.99
64032;DHT22;50278;47.796;11.968;2023-03-15T02:38:47;2.22;118.99
64032;DHT22;50278;47.796;11.968;2023-03-15T02:41:27;2.17;118.99
64032;DHT22;50278;47.796;11.968;2023-03-15T02:43:58;2.17;118.99
64032;DHT22;50278;47.796;11.968;2023-03-15T02:46:24;2.10;118.99
64032;DHT22;50278;47.796;11.968;2023-03-15T02:48:51;2.13;118.99
64032;DHT22;50278;47.796;11.968;2023-03-15T02:51:22;2.11;118.99
64032;DHT22;50278;47.796;11.968;2023-03-15T02:53:49;2.08;118.99
64032;DHT22;50278;47.796;11.968;2023-03-15T02:56:15;2.12;118.99
64032;DHT22;50278;47.796;11.968;2023-03-15T02:58:41;2.11;118.99
64032;DHT22;50278;47.796;11.968;2023-03-15T03:01:12;2.13;118.99
64032;DHT22;50278;47.796;11.968;2023-03-15T03:03:39;2.14;118.99
64032;DHT22;50278;47.796;11.968;2023-03-15T03:06:05;2.16;118.99
64032;DHT22;50278;47.796;11.968;2023-03-15T03:08:30;2.16;118.99
64032;DHT22;50278;47.796;11.968;2023-03-15T03:10:56;2.14;118.99
64032;DHT22;50278;47.796;11.968;2023-03-15T03:13:22;2.16;118.99
64032;DHT22;50278;47.796;11.968;2023-03-15T03:15:50;2.17;118.99
64032;DHT22;50278;47.796;11.968;2023-03-15T03:18:26;2.11;118.99
64032;DHT22;50278;47.796;11.968;2023-03-15T03:20:56;2.09;118.99
64032;DHT22;50278;47.796;11.968;2023-03-15T03:23:25;2.08;118.99
64032;DHT22;50278;47.796;11.968;2023-03-15T03:25:52;2.12;118.99
64032;DHT22;50278;47.796;11.968;2023-03-15T03:28:28;2.13;118.99
64032;DHT22;50278;47.796;11.968;2023-03-15T03:30:55;2.14;118.99
64032;DHT22;50278;47.796;11.968;2023-03-15T03:33:21;2.13;118.99
64032;DHT22;50278;47.796;11.968;2023-03-15T03:35:48;2.16;118.99
64032;DHT22;50278;47.796;11.968;2023-03-15T03:38:15;2.12;118.99
64032;DHT22;50278;47.796;11.968;2023-03-15T03:40:44;2.03;118.99
64032;DHT22;50278;47.796;11.968;2023-03-15T03:43:10;1.99;118.99
64032;DHT22;50278;47.796;11.968;2023-03-15T03:45:36;1.97;118.99
64032;DHT22;50278;47.796;11.968;2023-03-15T03:48:01;2.06;118.99
64032;DHT22;50278;47.796;11.968;2023-03-15T03:50:28;2.05;118.99
64032;DHT22;50278;47.796;11.968;2023-03-15T03:52:53;2.05;118.99
64032;DHT22;50278;47.796;11.968;2023-03-15T03:55:29;2.02;118.99
64032;DHT22;50278;47.796;11.968;2023-03-15T03:57:58;2.06;118.99
64032;DHT22;50278;47.796;11.968;2023-03-15T04:00:36;2.05;118.99
64032;DHT22;50278;47.796;11.968;2023-03-15T04:03:04;1.97;118.99
64032;DHT22;50278;47.796;11.968;2023-03-15T04:05:31;2.02;118.99
64032;DHT22;50278;47.796;11.968;2023-03-15T04:07:57;1.95;118.99
64032;DHT22;50278;47.796;11.968;2023-03-15T04:10:27;1.79;118.99
64032;DHT22;50278;47.796;11.968;2023-03-15T04:12:54;1.73;118.99
64032;DHT22;50278;47.796;11.968;2023-03-15T04:15:20;1.72;118.99
64032;DHT22;50278;47.796;11.968;2023-03-15T04:17:48;1.69;118.99
64032;DHT22;50278;47.796;11.968;2023-03-15T04:20:14;1.57;118.99
64032;DHT22;50278;47.796;11.968;2023-03-15T04:22:43;1.50;118.99
64032;DHT22;50278;47.796;11.968;2023-03-15T04:25:36;1.45;118.99
64032;DHT22;50278;47.796;11.968;2023-03-15T04:28:13;1.34;118.99
64032;DHT22;50278;47.796;11.968;2023-03-15T04:30:38;1.23;118.99
64032;DHT22;50278;47.796;11.968;2023-03-15T04:33:33;1.19;118.99
64032;DHT22;50278;47.796;11.968;2023-03-15T04:36:27;1.18;118.99
64032;DHT22;50278;47.796;11.968;2023-03-15T04:39:13;1.20;118.99
64032;DHT22;50278;47.796;11.968;2023-03-15T04:42:17;1.23;118.99
64032;DHT22;50278;47.796;11.968;2023-03-15T04:45:01;1.22;118.99
64032;DHT22;50278;47.796;11.968;2023-03-15T04:47:53;1.22;118.99
64032;DHT22;50278;47.796;11.968;2023-03-15T04:50:40;1.23;118.99
64032;DHT22;50278;47.796;11.968;2023-03-15T04:53:14;1.23;118.99
64032;DHT22;50278;47.796;11.968;2023-03-15T04:55:54;1.32;118.99
64032;DHT22;50278;47.796;11.968;2023-03-15T04:58:39;1.23;118.99
64032;DHT22;50278;47.796;11.968;2023-03-15T05:01:31;1.22;118.99
64032;DHT22;50278;47.796;11.968;2023-03-15T05:04:32;1.21;118.99
64032;DHT22;50278;47.796;11.968;2023-03-15T05:07:23;1.13;118.99
64032;DHT22;50278;47.796;11.968;2023-03-15T05:10:07;1.12;118.99
64032;DHT22;50278;47.796;11.968;2023-03-15T05:12:48;1.10;118.99
64032;DHT22;50278;47.796;11.968;2023-03-15T05:15:33;1.07;118.99
64032;DHT22;50278;47.796;11.968;2023-03-15T05:18:12;1.05;118.99
64032;DHT22;50278;47.796;11.968;2023-03-15T05:20:58;0.97;118.99
64032;DHT22;50278;47.796;11.968;2023-03-15T05:23:38;1.01;118.99
64032;DHT22;50278;47.796;11.968;2023-03-15T05:26:29;1.06;118.99
64032;DHT22;50278;47.796;11.968;2023-03-15T05:29:13;0.96;118.99
64032;DHT22;50278;47.796;11.968;2023-03-15T05:32:01;0.92;118.99
64032;DHT22;50278;47.796;11.968;2023-03-15T05:34:42;0.86;118.99
64032;DHT22;50278;47.796;11.968;2023-03-15T05:37:37;0.88;118.99
64032;DHT22;50278;47.796;11.968;2023-03-15T05:40:16;0.84;118.99
64032;DHT22;50278;47.796;11.968;2023-03-15T05:42:52;0.81;118.99
64032;DHT22;50278;47.796;11.968;2023-03-15T05:45:27;0.80;118.99
64032;DHT22;50278;47.796;11.968;2023-03-15T05:48:24;0.74;118.99
64032;DHT22;50278;47.796;11.968;2023-03-15T05:51:11;0.73;118.99
64032;DHT22;50278;47.796;11.968;2023-03-15T05:54:06;0.71;118.99
64032;DHT22;50278;47.796;11.968;2023-03-15T05:57:01;0.64;118.99
64032;DHT22;50278;47.796;11.968;2023-03-15T05:59:40;0.59;118.99
64032;DHT22;50278;47.796;11.968;2023-03-15T06:02:06;0.46;118.99
64032;DHT22;50278;47.796;11.968;2023-03-15T06:04:40;0.51;118.99
64032;DHT22;50278;47.796;11.968;2023-03-15T06:07:07;0.51;118.99
64032;DHT22;50278;47.796;11.968;2023-03-15T06:09:34;0.49;118.99
64032;DHT22;50278;47.796;11.968;2023-03-15T06:12:03;0.46;118.99
64032;DHT22;50278;47.796;11.968;2023-03-15T06:14:30;0.54;118.99
64032;DHT22;50278;47.796;11.968;2023-03-15T06:16:59;0.53;118.99
64032;DHT22;50278;47.796;11.968;2023-03-15T06:19:27;0.57;118.99
64032;DHT22;50278;47.796;11.968;2023-03-15T06:21:53;0.49;118.99
64032;DHT22;50278;47.796;11.968;2023-03-15T06:24:24;0.52;118.99
64032;DHT22;50278;47.796;11.968;2023-03-15T06:26:50;0.54;118.99
64032;DHT22;50278;47.796;11.968;2023-03-15T06:29:16;0.55;118.99
64032;DHT22;50278;47.796;11.968;2023-03-15T06:31:44;0.51;118.99
64032;DHT22;50278;47.796;11.968;2023-03-15T06:34:10;0.57;118.99
64032;DHT22;50278;47.796;11.968;2023-03-15T06:36:36;0.61;118.99
64032;DHT22;50278;47.796;11.968;2023-03-15T06:39:02;0.60;118.99
64032;DHT22;50278;47.796;11.968;2023-03-15T06:41:30;0.65;118.99
64032;DHT22;50278;47.796;11.968;2023-03-15T06:44:04;0.59;118.99
64032;DHT22;50278;47.796;11.968;2023-03-15T06:46:29;0.63;118.99
64032;DHT22;50278;47.796;11.968;2023-03-15T06:48:55;0.62;118.99
64032;DHT22;50278;47.796;11.968;2023-03-15T06:51:21;0.58;118.99
64032;DHT22;50278;47.796;11.968;2023-03-15T06:53:46;0.66;118.99
64032;DHT22;50278;47.796;11.968;2023-03-15T06:56:12;0.66;118.99
64032;DHT22;50278;47.796;11.968;2023-03-15T06:58:37;0.80;118.99
64032;DHT22;50278;47.796;11.968;2023-03-15T07:01:03;0.81;118.99
64032;DHT22;50278;47.796;11.968;2023-03-15T07:03:28;0.77;118.99
64032;DHT22;50278;47.796;11.968;2023-03-15T07:05:54;0.82;118.99
64032;DHT22;50278;47.796;11.968;2023-03-15T07:08:21;0.82;118.99
64032;DHT22;50278;47.796;11.968;2023-03-15T07:10:47;0.80;118.99
64032;DHT22;50278;47.796;11.968;2023-03-15T07:13:15;0.82;118.99
64032;DHT22;50278;47.796;11.968;2023-03-15T07:15:41;0.78;118.99
64032;DHT22;50278;47.796;11.968;2023-03-15T07:18:06;0.95;118.99
64032;DHT22;50278;47.796;11.968;2023-03-15T07:20:32;1.11;118.99
64032;DHT22;50278;47.796;11.968;2023-03-15T07:22:58;1.06;118.99
64032;DHT22;50278;47.796;11.968;2023-03-15T07:25:30;0.89;118.99
64032;DHT22;50278;47.796;11.968;2023-03-15T07:28:04;0.79;118.99
64032;DHT22;50278;47.796;11.968;2023-03-15T07:30:30;0.90;118.99
64032;DHT22;50278;47.796;11.968;2023-03-15T07:32:55;0.77;118.99
64032;DHT22;50278;47.796;11.968;2023-03-15T07:35:20;0.84;118.99
64032;DHT22;50278;47.796;11.968;2023-03-15T07:37:46;0.80;118.99
64032;DHT22;50278;47.796;11.968;2023-03-15T07:40:12;0.88;118.99
64032;DHT22;50278;47.796;11.968;2023-03-15T07:42:39;0.75;118.99
64032;DHT22;50278;47.796;11.968;2023-03-15T07:45:06;0.72;118.99
64032;DHT22;50278;47.796;11.968;2023-03-15T07:47:32;0.59;118.99
64032;DHT22;50278;47.796;11.968;2023-03-15T07:49:58;0.62;118.99
64032;DHT22;50278;47.796;11.968;2023-03-15T07:52:24;0.72;118.99
64032;DHT22;50278;47.796;11.968;2023-03-15T07:54:50;0.84;118.99
64032;DHT22;50278;47.796;11.968;2023-03-15T07:57:15;0.89;118.99
64032;DHT22;50278;47.796;11.968;2023-03-15T07:59:41;0.93;118.99
64032;DHT22;50278;47.796;11.968;2023-03-15T08:02:10;1.14;118.99
64032;DHT22;50278;47.796;11.968;2023-03-15T08:04:36;1.35;118.99
64032;DHT22;50278;47.796;11.968;2023-03-15T08:07:01;1.49;118.99
64032;DHT22;50278;47.796;11.968;2023-03-15T08:09:27;1.62;118.99
64032;DHT22;50278;47.796;11.968;2023-03-15T08:11:52;1.65;118.99
64032;DHT22;50278;47.796;11.968;2023-03-15T08:14:18;2.03;118.99
64032;DHT22;50278;47.796;11.968;2023-03-15T08:16:43;2.09;118.99
64032;DHT22;50278;47.796;11.968;2023-03-15T08:19:09;2.31;118.99
64032;DHT22;50278;47.796;11.968;2023-03-15T08:21:34;2.34;118.99
64032;DHT22;50278;47.796;11.968;2023-03-15T08:24:00;2.37;118.99
64032;DHT22;50278;47.796;11.968;2023-03-15T08:26:26;2.60;118.99
64032;DHT22;50278;47.796;11.968;2023-03-15T08:28:51;2.40;118.99
64032;DHT22;50278;47.796;11.968;2023-03-15T08:31:17;2.12;118.99
64032;DHT22;50278;47.796;11.968;2023-03-15T08:33:42;1.96;118.99
64032;DHT22;50278;47.796;11.968;2023-03-15T08:36:08;2.11;118.99
64032;DHT22;50278;47.796;11.968;2023-03-15T08:38:34;2.41;118.99
64032;DHT22;50278;47.796;11.968;2023-03-15T08:41:00;2.36;118.99
64032;DHT22;50278;47.796;11.968;2023-03-15T08:43:25;2.34;118.99
64032;DHT22;50278;47.796;11.968;2023-03-15T08:45:51;2.21;118.99
64032;DHT22;50278;47.796;11.968;2023-03-15T08:48:17;2.44;118.99
64032;DHT22;50278;47.796;11.968;2023-03-15T08:50:42;2.59;118.99
64032;DHT22;50278;47.796;11.968;2023-03-15T08:53:09;2.73;118.99
64032;DHT22;50278;47.796;11.968;2023-03-15T08:55:36;2.14;118.99
64032;DHT22;50278;47.796;11.968;2023-03-15T08:58:02;2.22;118.99
64032;DHT22;50278;47.796;11.968;2023-03-15T09:00:29;2.34;118.99
64032;DHT22;50278;47.796;11.968;2023-03-15T09:02:54;2.44;118.99
64032;DHT22;50278;47.796;11.968;2023-03-15T09:05:21;2.55;118.99
64032;DHT22;50278;47.796;11.968;2023-03-15T09:07:47;2.64;118.99
64032;DHT22;50278;47.796;11.968;2023-03-15T09:10:15;2.59;118.99
64032;DHT22;50278;47.796;11.968;2023-03-15T09:12:43;2.58;118.99
64032;DHT22;50278;47.796;11.968;2023-03-15T09:15:10;2.52;118.99
64032;DHT22;50278;47.796;11.968;2023-03-15T09:17:37;2.68;118.99
64032;DHT22;50278;47.796;11.968;2023-03-15T09:20:04;2.58;118.99
64032;DHT22;50278;47.796;11.968;2023-03-15T09:22:35;2.79;118.99
64032;DHT22;50278;47.796;11.968;2023-03-15T09:25:01;3.05;118.99
64032;DHT22;50278;47.796;11.968;2023-03-15T09:27:29;2.99;118.99
64032;DHT22;50278;47.796;11.968;2023-03-15T09:29:55;2.90;118.18
64032;DHT22;50278;47.796;11.968;2023-03-15T09:32:20;2.97;107.38
64032;DHT22;50278;47.796;11.968;2023-03-15T09:34:46;3.06;118.99
64032;DHT22;50278;47.796;11.968;2023-03-15T09:37:12;3.04;118.99
64032;DHT22;50278;47.796;11.968;2023-03-15T09:39:37;2.96;112.03
64032;DHT22;50278;47.796;11.968;2023-03-15T09:42:14;3.44;91.07
64032;DHT22;50278;47.796;11.968;2023-03-15T09:44:47;3.92;82.91
64032;DHT22;50278;47.796;11.968;2023-03-15T09:50:20;4.15;82.93
64032;DHT22;50278;47.796;11.968;2023-03-15T09:52:53;4.33;68.78
64032;DHT22;50278;47.796;11.968;2023-03-15T09:55:27;4.41;72.45
64032;DHT22;50278;47.796;11.968;2023-03-15T09:57:56;4.84;64.77
64032;DHT22;50278;47.796;11.968;2023-03-15T10:00:44;5.15;60.31
64032;DHT22;50278;47.796;11.968;2023-03-15T10:03:22;5.15;59.78
64032;DHT22;50278;47.796;11.968;2023-03-15T10:05:54;4.91;58.74
64032;DHT22;50278;47.796;11.968;2023-03-15T10:08:20;4.61;56.07
64032;DHT22;50278;47.796;11.968;2023-03-15T10:16:40;5.20;45.03
64032;DHT22;50278;47.796;11.968;2023-03-15T10:25:04;5.11;43.48
64032;DHT22;50278;47.796;11.968;2023-03-15T10:27:46;5.28;42.60
64032;DHT22;50278;47.796;11.968;2023-03-15T10:30:15;5.53;35.57
64032;DHT22;50278;47.796;11.968;2023-03-15T10:32:42;5.21;46.31
64032;DHT22;50278;47.796;11.968;2023-03-15T10:35:16;4.63;35.56
64032;DHT22;50278;47.796;11.968;2023-03-15T10:37:43;4.43;44.19
64032;DHT22;50278;47.796;11.968;2023-03-15T10:40:10;4.64;41.28
64032;DHT22;50278;47.796;11.968;2023-03-15T10:42:42;5.15;38.08
64032;DHT22;50278;47.796;11.968;2023-03-15T10:45:17;5.36;40.68
64032;DHT22;50278;47.796;11.968;2023-03-15T10:47:43;5.49;38.50
64032;DHT22;50278;47.796;11.968;2023-03-15T10:50:16;4.92;35.50
64032;DHT22;50278;47.796;11.968;2023-03-15T10:52:44;4.60;35.66
64032;DHT22;50278;47.796;11.968;2023-03-15T10:55:15;4.74;36.68
64032;DHT22;50278;47.796;11.968;2023-03-15T10:57:54;5.00;37.22
64032;DHT22;50278;47.796;11.968;2023-03-15T11:00:24;5.12;34.63
64032;DHT22;50278;47.796;11.968;2023-03-15T11:03:00;5.36;33.38
64032;DHT22;50278;47.796;11.968;2023-03-15T11:05:37;5.72;37.01
64032;DHT22;50278;47.796;11.968;2023-03-15T11:08:03;5.67;27.29
64032;DHT22;50278;47.796;11.968;2023-03-15T11:10:35;5.82;28.07
64032;DHT22;50278;47.796;11.968;2023-03-15T11:13:20;6.30;27.19
64032;DHT22;50278;47.796;11.968;2023-03-15T11:16:05;6.72;20.47
64032;DHT22;50278;47.796;11.968;2023-03-15T11:18:57;6.78;22.37
64032;DHT22;50278;47.796;11.968;2023-03-15T11:21:34;6.68;19.02
64032;DHT22;50278;47.796;11.968;2023-03-15T11:24:02;6.50;16.38
64032;DHT22;50278;47.796;11.968;2023-03-15T11:26:33;6.53;16.94
64032;DHT22;50278;47.796;11.968;2023-03-15T11:29:04;6.24;18.89
64032;DHT22;50278;47.796;11.968;2023-03-15T11:31:31;6.12;16.00
64032;DHT22;50278;47.796;11.968;2023-03-15T11:36:33;7.25;17.83
64032;DHT22;50278;47.796;11.968;2023-03-15T11:39:01;6.73;14.23
64032;DHT22;50278;47.796;11.968;2023-03-15T11:41:34;6.35;21.18
64032;DHT22;50278;47.796;11.968;2023-03-15T11:46:38;8.11;7.35
64032;DHT22;50278;47.796;11.968;2023-03-15T11:49:28;6.72;11.62
64032;DHT22;50278;47.796;11.968;2023-03-15T11:51:55;6.68;9.59
64032;DHT22;50278;47.796;11.968;2023-03-15T11:54:22;6.50;9.34
64032;DHT22;50278;47.796;11.968;2023-03-15T11:57:04;6.49;12.14
64032;DHT22;50278;47.796;11.968;2023-03-15T11:59:36;5.76;14.42
64032;DHT22;50278;47.796;11.968;2023-03-15T12:04:47;6.79;14.09
64032;DHT22;50278;47.796;11.968;2023-03-15T12:09:51;9.40;7.12
64032;DHT22;50278;47.796;11.968;2023-03-15T12:17:43;9.03;4.98
64032;DHT22;50278;47.796;11.968;2023-03-15T12:22:40;7.38;8.66
64032;DHT22;50278;47.796;11.968;2023-03-15T12:25:14;6.56;9.79
64032;DHT22;50278;47.796;11.968;2023-03-15T12:27:51;6.23;11.46
64032;DHT22;50278;47.796;11.968;2023-03-15T12:30:34;5.79;16.45
64032;DHT22;50278;47.796;11.968;2023-03-15T12:33:02;5.68;11.95
64032;DHT22;50278;47.796;11.968;2023-03-15T12:35:37;6.74;9.49
64032;DHT22;50278;47.796;11.968;2023-03-15T12:38:10;8.08;4.48
64032;DHT22;50278;47.796;11.968;2023-03-15T12:40:41;8.83;3.67
64032;DHT22;50278;47.796;11.968;2023-03-15T12:43:12;8.80;2.25
64032;DHT22;50278;47.796;11.968;2023-03-15T12:45:42;8.08;3.15
64032;DHT22;50278;47.796;11.968;2023-03-15T12:48:16;7.37;4.86
64032;DHT22;50278;47.796;11.968;2023-03-15T12:55:56;9.54;0.60
64032;DHT22;50278;47.796;11.968;2023-03-15T12:58:30;10.59;-6.00
64032;DHT22;50278;47.796;11.968;2023-03-15T13:01:00;10.40;-4.43
64032;DHT22;50278;47.796;11.968;2023-03-15T13:03:26;9.63;-5.93
64032;DHT22;50278;47.796;11.968;2023-03-15T13:08:53;9.84;-4.64
64032;DHT22;50278;47.796;11.968;2023-03-15T13:14:15;11.41;-6.00
64032;DHT22;50278;47.796;11.968;2023-03-15T13:17:01;11.38;-6.00
64032;DHT22;50278;47.796;11.968;2023-03-15T13:19:40;11.62;-6.00
64032;DHT22;50278;47.796;11.968;2023-03-15T13:22:26;10.65;-6.00
64032;DHT22;50278;47.796;11.968;2023-03-15T13:25:06;11.62;-6.00
64032;DHT22;50278;47.796;11.968;2023-03-15T13:27:49;11.58;-6.00
64032;DHT22;50278;47.796;11.968;2023-03-15T13:32:47;8.30;-1.61
64032;DHT22;50278;47.796;11.968;2023-03-15T13:35:13;9.18;-3.45
64032;DHT22;50278;47.796;11.968;2023-03-15T13:37:39;10.14;-6.00
64032;DHT22;50278;47.796;11.968;2023-03-15T13:40:13;10.22;-6.00
64032;DHT22;50278;47.796;11.968;2023-03-15T13:42:40;9.53;-6.00
64032;DHT22;50278;47.796;11.968;2023-03-15T13:45:09;8.77;-3.19
64032;DHT22;50278;47.796;11.968;2023-03-15T13:47:36;10.03;-6.00
64032;DHT22;50278;47.796;11.968;2023-03-15T13:50:05;10.42;-4.57
64032;DHT22;50278;47.796;11.968;2023-03-15T13:52:31;9.65;-5.08
64032;DHT22;50278;47.796;11.968;2023-03-15T13:54:58;9.82;-6.00
64032;DHT22;50278;47.796;11.968;2023-03-15T13:57:23;9.46;-6.00
64032;DHT22;50278;47.796;11.968;2023-03-15T13:59:56;8.48;-6.00
64032;DHT22;50278;47.796;11.968;2023-03-15T14:02:32;7.58;-0.32
64032;DHT22;50278;47.796;11.968;2023-03-15T14:05:04;8.14;-2.96
64032;DHT22;50278;47.796;11.968;2023-03-15T14:07:42;7.87;-1.32
64032;DHT22;50278;47.796;11.968;2023-03-15T14:10:30;7.77;-1.03
64032;DHT22;50278;47.796;11.968;2023-03-15T14:12:58;7.50;-1.80
64032;DHT22;50278;47.796;11.968;2023-03-15T14:15:32;7.46;-2.74
64032;DHT22;50278;47.796;11.968;2023-03-15T14:18:10;7.29;-0.74
64032;DHT22;50278;47.796;11.968;2023-03-15T14:20:50;7.49;-2.28
64032;DHT22;50278;47.796;11.968;2023-03-15T14:23:18;7.14;0.77
64032;DHT22;50278;47.796;11.968;2023-03-15T14:26:10;6.76;0.68
64032;DHT22;50278;47.796;11.968;2023-03-15T14:28:38;6.55;2.67
64032;DHT22;50278;47.796;11.968;2023-03-15T14:31:04;6.74;1.74
64032;DHT22;50278;47.796;11.968;2023-03-15T14:33:40;6.85;1.63
64032;DHT22;50278;47.796;11.968;2023-03-15T14:36:30;6.74;1.72
64032;DHT22;50278;47.796;11.968;2023-03-15T14:38:57;6.42;2.61
64032;DHT22;50278;47.796;11.968;2023-03-15T14:41:29;6.43;4.60
64032;DHT22;50278;47.796;11.968;2023-03-15T14:44:01;6.41;6.56
64032;DHT22;50278;47.796;11.968;2023-03-15T14:46:30;6.31;4.42
64032;DHT22;50278;47.796;11.968;2023-03-15T14:48:56;6.53;5.43
64032;DHT22;50278;47.796;11.968;2023-03-15T14:51:22;6.40;5.83
64032;DHT22;50278;47.796;11.968;2023-03-15T14:53:51;6.21;9.26
64032;DHT22;50278;47.796;11.968;2023-03-15T14:56:18;6.21;5.44
64032;DHT22;50278;47.796;11.968;2023-03-15T14:58:44;6.27;6.47
64032;DHT22;50278;47.796;11.968;2023-03-15T15:01:12;6.19;7.52
64032;DHT22;50278;47.796;11.968;2023-03-15T15:03:45;6.16;4.64
64032;DHT22;50278;47.796;11.968;2023-03-15T15:06:13;6.20;7.19
64032;DHT22;50278;47.796;11.968;2023-03-15T15:08:45;6.36;7.73
64032;DHT22;50278;47.796;11.968;2023-03-15T15:11:11;6.33;6.06
64032;DHT22;50278;47.796;11.968;2023-03-15T15:13:38;6.31;8.65
64032;DHT22;50278;47.796;11.968;2023-03-15T15:16:04;5.91;6.36
64032;DHT22;50278;47.796;11.968;2023-03-15T15:18:31;5.92;7.50
64032;DHT22;50278;47.796;11.968;2023-03-15T15:21:00;5.65;9.88
64032;DHT22;50278;47.796;11.968;2023-03-15T15:23:34;5.54;9.34
64032;DHT22;50278;47.796;11.968;2023-03-15T15:26:03;5.65;7.51
64032;DHT22;50278;47.796;11.968;2023-03-15T15:28:30;5.67;8.02
64032;DHT22;50278;47.796;11.968;2023-03-15T15:30:56;5.87;9.76
64032;DHT22;50278;47.796;11.968;2023-03-15T15:33:22;5.67;9.97
64032;DHT22;50278;47.796;11.968;2023-03-15T15:35:53;5.90;8.07
64032;DHT22;50278;47.796;11.968;2023-03-15T15:38:22;5.82;10.83
64032;DHT22;50278;47.796;11.968;2023-03-15T15:40:47;5.82;12.07
64032;DHT22;50278;47.796;11.968;2023-03-15T15:43:13;6.04;8.50
64032;DHT22;50278;47.796;11.968;2023-03-15T15:45:38;5.84;8.40
64032;DHT22;50278;47.796;11.968;2023-03-15T15:48:04;5.75;11.26
64032;DHT22;50278;47.796;11.968;2023-03-15T15:50:34;5.76;13.23
64032;DHT22;50278;47.796;11.968;2023-03-15T15:53:02;5.79;11.60
64032;DHT22;50278;47.796;11.968;2023-03-15T15:55:31;5.71;12.17
64032;DHT22;50278;47.796;11.968;2023-03-15T15:57:58;5.90;10.23
64032;DHT22;50278;47.796;11.968;2023-03-15T16:00:25;5.85;11.11
64032;DHT22;50278;47.796;11.968;2023-03-15T16:02:51;5.91;11.84
64032;DHT22;50278;47.796;11.968;2023-03-15T16:05:23;6.27;12.32
64032;DHT22;50278;47.796;11.968;2023-03-15T16:07:49;6.99;8.23
64032;DHT22;50278;47.796;11.968;2023-03-15T16:10:20;6.94;7.26
64032;DHT22;50278;47.796;11.968;2023-03-15T16:12:47;6.74;7.00
64032;DHT22;50278;47.796;11.968;2023-03-15T16:15:15;6.65;7.32
64032;DHT22;50278;47.796;11.968;2023-03-15T16:17:41;6.26;9.10
64032;DHT22;50278;47.796;11.968;2023-03-15T16:20:08;6.15;11.43
64032;DHT22;50278;47.796;11.968;2023-03-15T16:22:39;6.07;9.95
64032;DHT22;50278;47.796;11.968;2023-03-15T16:25:08;5.67;9.91
64032;DHT22;50278;47.796;11.968;2023-03-15T16:27:34;5.47;13.24
64032;DHT22;50278;47.796;11.968;2023-03-15T16:30:00;5.62;10.85
64032;DHT22;50278;47.796;11.968;2023-03-15T16:32:29;5.38;12.19
64032;DHT22;50278;47.796;11.968;2023-03-15T16:34:54;5.32;12.48
64032;DHT22;50278;47.796;11.968;2023-03-15T16:37:31;5.38;11.69